Etusivu
METAR-TAF:

METAR-TAF

Lentoasemat :

Djerba, Tunisia

Leveyspiiri: 33-52N, Pituuspiiri: 010-46E, korkeus merenpinnasta: 3 m

METAR: puuttuu

Aika: 12:36 (11:36 UTC)

Sääennuste

Tämä raportti tehtiin 6 tuntia ja 36 minuuttia sitten, kello 05.00 UTC
Ennuste voimassa 12. päivästä klo 06 UTC - 13. päivään klo 06 UTC
Tuuli kn pohjoisesta
Näkyvyys 10 km tai enemmän
ei pilviä alle 1500 m:ssä eikä cumulonimbus-pilviä
Tulossa
12. päivästä klo 13 UTC - 12. päivään klo 15 UTC
Tuuli 15 kn idästä
Tulossa
13. päivästä klo 01 UTC - 13. päivään klo 03 UTC
Tuuli 5 kn idästä

TAF: DTTJ 120500Z 1206/1306 00000KT CAVOK BECMG 1213/1215 09015KT BECMG 1301/1303 10005KT

Säähavainnot ja -ennusteet yli 4000 lentoasemalta (METAR- ja TAF-raportit).

Käytössä olevat sääasemat on merkitty karttaan keltaisilla ja punaisilla pisteillä.

Aseta hiiri pisteen päälle nähdäksesi sääaseman nimen.

Klikkaa sitten nähdäksesi säähavainnot ja -ennusteet.

Kartan vaihtaminen: klikkaa mustalla rastilla varustettuja vihreitä pisteitä, niin voit zoomata sisään; viivalla varustettua vihreää pistettä, niin voit zoomata ulos tai vihreitä nuolia, niin pääset viereisille kartoille.


METAR-TAF: